Aérodrome :
LOGIN :

S'inscrire | Disclaimer

   EN    FR    IT 

 










Légende :    VFR   VFR Marginal   IFR   IFR Intensif   IFR Très Intensif
Visi : 
Plafond : 
>= 8 km
>= 3000ft
5 à 8 km
1000 à 3000 ft
1500m à 5 km
500 à 1000 ft
800 à 1500m
200 à 500 ft
< 800m
< 200 ft
Symboles :   Orages  Brouillard  Fortes neiges  Fortes précipitations  Vent > 20 kt
SIGMETs :   Divers  Orages  Givrage  Turbulence  Onde Orograph.  Cendres Volcan.







- Altitude de l'aérodrome : 370 ft


EBBE - Beauvechain AB

DERNIER METAR :
  • 250025Z AUTO 23010KT 9999 FEW020/// SCT026/// BKN031/// 14/10 Q1010 BLU

METARs EXPIRÉS :
  • 242355Z AUTO 25010KT 9999 SCT018/// OVC055/// 14/10 Q1010 WHT
  • 242325Z AUTO 23011KT 9999 OVC050/// 15/09 Q1010 BLU
  • 242255Z AUTO 21011KT 9999 BKN055/// 15/09 Q1011 BLU
  • 242225Z AUTO 19009KT 9999 OVC055/// 15/10 Q1011 BLU
  • 242155Z 20008KT 9999 FEW040 BKN050 15/10 Q1011 BLU BLU

TAF TAF EBBE
Valide du 24 à 19h jusqu'au 25 à 07h UTC


241541Z 2419/2507 23010KT 9999 BKN030
TEMPO 2419/2421 7000 -RA BKN028
BECMG 2500/2504 FEW012 BKN020
BECMG 2504/2506 SCT008 OVC012
TEMPO 2504/2507 4000 RA SCT005 OVC007
Pas de NOTAMs connus pour ce terrain.



MET'MAP, la Météo Aéronautique d'un coup d'oeil ! - Copyright ORBIFLY Décembre 2007 - Disclaimer

ORBIFLY MET'MAP TEAM :

Programmation & Développement : Alexandra Zaïnal
Conception & Développement : Baudouin d'Aumeries
Co-Programmation & Développement : Marc-Olivier Méhu
Soutien technique & logistique : Manuel Goepfert

Contact : metmap@orbifly.com




SOURCES & CREDITS :

   NOAA